Time;durP1;ratioP1;P1;durP2;ratioP2;P2;SDS_P1;SDS_P2;PMS_P1;PMS_P2;Temp;Humidity;BMP_temperature;BMP_pressure;BME280_temperature;BME280_humidity;BME280_pressure;Samples;Min_cycle;Max_cycle;Signal;HPM_P1;HPM_P2
2022/03/21 00:01:36;;;;;;;153.20;137.20;;;7.20;91.80;;;;;;5033795;28;20491;-74
2022/03/21 00:04:04;;;;;;;153.63;137.57;;;7.20;91.90;;;;;;5016203;28;20046;-74
2022/03/21 00:06:31;;;;;;;154.07;138.13;;;7.20;91.90;;;;;;5033770;28;20077;-74
2022/03/21 00:08:58;;;;;;;154.57;138.63;;;7.30;91.90;;;;;;5015743;28;20050;-74
2022/03/21 00:11:26;;;;;;;153.52;137.90;;;7.30;91.90;;;;;;5016200;28;20054;-74
2022/03/21 00:13:54;;;;;;;153.15;137.48;;;7.30;91.90;;;;;;5015681;28;20797;-74
2022/03/21 00:16:21;;;;;;;150.98;135.35;;;7.30;92.00;;;;;;5033869;28;20053;-74
2022/03/21 00:18:49;;;;;;;153.30;137.52;;;7.30;92.00;;;;;;5033731;28;20065;-74
2022/03/21 00:21:17;;;;;;;152.77;137.20;;;7.30;92.00;;;;;;5033731;28;20057;-74
2022/03/21 00:23:44;;;;;;;152.65;136.32;;;7.30;92.00;;;;;;5016191;28;20057;-74
2022/03/21 00:26:11;;;;;;;152.10;136.68;;;7.30;92.00;;;;;;5033844;28;20046;-74
2022/03/21 00:28:37;;;;;;;151.93;136.25;;;7.30;92.00;;;;;;5033356;28;20432;-74
2022/03/21 00:31:04;;;;;;;154.00;138.20;;;7.40;91.90;;;;;;5033509;28;20133;-74
2022/03/21 00:33:32;;;;;;;155.48;139.13;;;7.40;91.90;;;;;;5015304;28;20816;-74
2022/03/21 00:36:03;;;;;;;156.23;139.65;;;7.40;91.90;;;;;;5015492;28;20447;-74
2022/03/21 00:38:30;;;;;;;154.15;138.07;;;7.40;91.90;;;;;;5015309;28;20069;-74
2022/03/21 00:40:58;;;;;;;156.13;140.00;;;7.40;91.80;;;;;;5015636;28;20056;-75
2022/03/21 00:43:26;;;;;;;156.32;140.05;;;7.40;91.80;;;;;;5034863;28;20046;-74
2022/03/21 00:45:55;;;;;;;157.40;141.10;;;7.40;91.80;;;;;;5019208;28;20057;-74
2022/03/21 00:48:23;;;;;;;156.95;140.38;;;7.40;91.70;;;;;;5018906;28;20057;-74
2022/03/21 00:50:50;;;;;;;153.25;137.43;;;7.40;91.70;;;;;;5037162;28;20530;-74
2022/03/21 00:53:18;;;;;;;153.20;137.30;;;7.40;91.80;;;;;;5019062;28;20042;-74
2022/03/21 00:55:46;;;;;;;155.68;139.80;;;7.40;91.80;;;;;;5018692;28;20050;-74
2022/03/21 00:58:14;;;;;;;150.50;134.82;;;7.50;91.80;;;;;;5018539;28;20051;-74
2022/03/21 01:05:08;;;;;;;150.38;135.00;;;7.50;91.60;;;;;;5038529;28;20539;-74
2022/03/21 01:07:35;;;;;;;150.02;134.63;;;7.50;91.70;;;;;;5036455;28;20066;-74
2022/03/21 01:10:06;;;;;;;152.15;136.63;;;7.50;91.80;;;;;;5018865;28;20046;-74
2022/03/21 01:12:33;;;;;;;151.95;136.32;;;7.40;91.80;;;;;;5018540;28;20541;-74
2022/03/21 01:15:01;;;;;;;153.15;137.40;;;7.40;91.90;;;;;;5036301;28;20057;-74
2022/03/21 01:17:28;;;;;;;152.13;136.07;;;7.40;91.90;;;;;;5036200;28;20065;-74
2022/03/21 01:19:56;;;;;;;152.25;136.52;;;7.40;92.10;;;;;;5018693;28;20060;-75
2022/03/21 01:22:23;;;;;;;151.05;135.52;;;7.40;91.80;;;;;;5036194;28;20514;-74
2022/03/21 01:24:50;;;;;;;150.23;134.38;;;7.40;91.90;;;;;;5018333;28;20117;-74
2022/03/21 01:27:18;;;;;;;148.48;132.98;;;7.40;91.90;;;;;;5018117;28;20057;-74
2022/03/21 01:29:45;;;;;;;148.32;133.23;;;7.40;92.00;;;;;;5036312;28;20100;-74
2022/03/21 01:32:12;;;;;;;148.52;133.38;;;7.40;92.00;;;;;;5027270;28;20054;-74
2022/03/21 01:34:39;;;;;;;145.55;130.75;;;7.50;92.10;;;;;;5016592;28;20047;-74
2022/03/21 01:37:06;;;;;;;147.88;132.88;;;7.40;92.00;;;;;;4998363;28;20061;-74
2022/03/21 01:39:33;;;;;;;147.23;132.18;;;7.40;92.00;;;;;;5016267;28;20058;-74
2022/03/21 01:42:00;;;;;;;145.70;130.80;;;7.40;92.00;;;;;;5016134;28;20089;-74
2022/03/21 01:44:29;;;;;;;148.13;132.98;;;7.50;91.90;;;;;;4998691;28;20053;-74
2022/03/21 01:46:56;;;;;;;146.18;131.23;;;7.50;91.80;;;;;;5015983;28;20057;-74
2022/03/21 01:49:24;;;;;;;147.65;132.27;;;7.40;91.60;;;;;;4998809;28;20061;-75
2022/03/21 01:51:51;;;;;;;148.52;132.93;;;7.40;91.60;;;;;;5016014;28;20485;-75
2022/03/21 01:57:04;;;;;;;147.60;132.70;;;7.40;91.50;;;;;;5015807;28;20205;-74
2022/03/21 01:59:33;;;;;;;144.93;130.02;;;7.50;91.40;;;;;;4998355;28;20050;-74
2022/03/21 02:02:00;;;;;;;145.88;130.93;;;7.50;91.70;;;;;;4998469;28;20528;-74
2022/03/21 02:04:27;;;;;;;145.35;130.52;;;7.40;91.60;;;;;;4998716;28;20516;-74
2022/03/21 02:06:54;;;;;;;143.75;129.13;;;7.40;91.60;;;;;;5015613;28;20050;-74
2022/03/21 02:09:21;;;;;;;144.13;129.30;;;7.40;91.60;;;;;;4997949;28;20084;-75
2022/03/21 02:11:49;;;;;;;142.10;127.70;;;7.40;91.50;;;;;;4997919;28;20562;-74
2022/03/21 02:14:16;;;;;;;143.93;129.25;;;7.40;91.60;;;;;;5014274;28;20497;-74
2022/03/21 02:16:45;;;;;;;142.75;128.13;;;7.40;91.70;;;;;;4997771;28;20060;-74
2022/03/21 02:19:22;;;;;;;143.63;129.02;;;7.40;91.70;;;;;;4997731;28;20101;-74
2022/03/21 02:21:58;;;;;;;139.95;125.53;;;7.40;91.80;;;;;;5015552;28;20860;-75
2022/03/21 02:24:30;;;;;;;141.65;127.07;;;7.40;91.70;;;;;;4997830;28;20047;-74
2022/03/21 02:27:00;;;;;;;138.55;124.35;;;7.30;91.60;;;;;;4997656;28;20054;-74
2022/03/21 02:29:30;;;;;;;138.30;123.72;;;7.30;91.60;;;;;;5014654;28;20078;-74
2022/03/21 02:31:57;;;;;;;137.10;123.30;;;7.30;91.60;;;;;;5020925;28;20058;-75
2022/03/21 02:34:26;;;;;;;135.65;122.05;;;7.30;91.60;;;;;;5034347;28;20084;-74
2022/03/21 02:36:55;;;;;;;134.55;121.05;;;7.30;91.60;;;;;;5017045;28;20061;-74
2022/03/21 02:39:23;;;;;;;132.68;119.18;;;7.20;91.50;;;;;;5017403;28;20153;-74
2022/03/21 02:41:50;;;;;;;131.48;118.10;;;7.30;91.40;;;;;;5035098;28;20054;-74
2022/03/21 02:44:19;;;;;;;130.15;116.97;;;7.30;91.50;;;;;;5035481;28;20049;-74
2022/03/21 02:46:46;;;;;;;129.75;116.60;;;7.30;91.50;;;;;;5034927;28;20060;-75
2022/03/21 02:49:15;;;;;;;128.93;115.95;;;7.20;91.30;;;;;;5017044;28;20050;-74
2022/03/21 02:51:44;;;;;;;129.15;116.07;;;7.30;91.40;;;;;;5017097;28;20045;-74
2022/03/21 02:54:13;;;;;;;128.80;115.85;;;7.20;91.40;;;;;;5017432;28;20105;-74
2022/03/21 02:56:40;;;;;;;131.13;118.10;;;7.20;91.30;;;;;;5016912;28;20501;-74
2022/03/21 02:59:07;;;;;;;127.43;114.45;;;7.20;91.30;;;;;;5016681;28;20049;-74
2022/03/21 03:01:36;;;;;;;128.80;116.10;;;7.20;91.30;;;;;;5017532;28;20057;-74
2022/03/21 03:04:04;;;;;;;134.63;121.32;;;7.20;91.30;;;;;;5033158;28;20602;-74
2022/03/21 03:06:30;;;;;;;133.65;120.53;;;7.10;91.20;;;;;;5033124;28;20050;-74
2022/03/21 03:08:57;;;;;;;133.45;119.95;;;7.10;91.00;;;;;;5034551;28;20096;-74
2022/03/21 03:11:24;;;;;;;132.27;118.95;;;7.10;91.00;;;;;;5016875;28;20053;-74
2022/03/21 03:13:51;;;;;;;132.43;119.32;;;7.10;91.00;;;;;;5034580;28;20054;-74
2022/03/21 03:16:18;;;;;;;131.32;118.13;;;7.10;91.00;;;;;;5034627;28;20052;-74
2022/03/21 03:18:46;;;;;;;129.73;116.80;;;7.10;91.00;;;;;;5034262;28;20049;-74
2022/03/21 03:21:19;;;;;;;130.57;117.55;;;7.00;91.10;;;;;;5016920;28;20056;-74
2022/03/21 03:23:47;;;;;;;128.55;115.65;;;7.00;91.00;;;;;;5016841;28;20046;-74
2022/03/21 03:26:14;;;;;;;129.48;116.53;;;7.00;91.10;;;;;;5019547;28;20053;-74
2022/03/21 03:28:41;;;;;;;128.38;115.57;;;7.00;91.00;;;;;;5015749;28;20133;-74
2022/03/21 03:31:08;;;;;;;128.38;115.45;;;7.00;91.00;;;;;;5016209;28;20050;-74
2022/03/21 03:33:36;;;;;;;125.85;113.20;;;7.00;91.10;;;;;;4997477;28;20534;-74
2022/03/21 03:36:05;;;;;;;125.60;113.05;;;6.90;91.00;;;;;;5014583;28;20440;-74
2022/03/21 03:38:32;;;;;;;127.75;115.25;;;6.90;91.10;;;;;;5014272;28;20142;-74
2022/03/21 03:40:59;;;;;;;123.40;111.25;;;6.90;90.90;;;;;;5014460;28;20939;-74
2022/03/21 03:43:26;;;;;;;125.65;113.20;;;6.90;90.70;;;;;;4996692;28;20435;-74
2022/03/21 03:45:54;;;;;;;125.30;112.95;;;6.90;90.60;;;;;;5014005;28;20058;-74
2022/03/21 03:48:21;;;;;;;127.25;114.65;;;6.90;90.60;;;;;;4996122;28;20065;-74
2022/03/21 03:50:48;;;;;;;128.88;116.05;;;6.80;90.60;;;;;;4996696;28;20062;-74
2022/03/21 03:53:18;;;;;;;121.63;109.78;;;6.80;90.70;;;;;;5013052;28;20046;-74
2022/03/21 03:55:44;;;;;;;122.47;110.47;;;6.70;90.70;;;;;;4996541;28;20500;-74
2022/03/21 03:58:11;;;;;;;124.53;112.35;;;6.70;90.60;;;;;;4995819;28;20134;-74
2022/03/21 04:00:39;;;;;;;126.45;114.03;;;6.70;90.60;;;;;;4996894;28;20538;-74
2022/03/21 04:05:50;;;;;;;123.88;111.43;;;6.60;90.40;;;;;;4996557;28;20046;-74
2022/03/21 04:08:19;;;;;;;123.00;110.75;;;6.60;90.20;;;;;;5013716;28;20058;-74
2022/03/21 04:10:46;;;;;;;124.32;111.78;;;6.60;90.30;;;;;;4996441;28;20042;-74
2022/03/21 04:13:13;;;;;;;125.03;112.72;;;6.50;90.40;;;;;;5013952;28;20054;-74
2022/03/21 04:15:40;;;;;;;124.20;112.13;;;6.50;90.40;;;;;;4996494;28;20134;-74
2022/03/21 04:18:07;;;;;;;124.47;112.35;;;6.50;90.30;;;;;;5012272;28;20101;-74
2022/03/21 04:20:36;;;;;;;120.22;108.47;;;6.50;90.10;;;;;;5014174;28;20061;-74
2022/03/21 04:23:05;;;;;;;121.55;109.75;;;6.50;90.10;;;;;;4995944;28;20552;-74
2022/03/21 04:25:33;;;;;;;122.05;109.93;;;6.50;90.00;;;;;;4996496;28;20448;-74
2022/03/21 04:28:00;;;;;;;124.28;112.00;;;6.40;89.90;;;;;;4995784;28;20060;-74
2022/03/21 04:30:28;;;;;;;120.18;108.25;;;6.40;90.00;;;;;;5013256;28;20061;-74
2022/03/21 04:32:55;;;;;;;121.00;109.45;;;6.40;90.00;;;;;;5026645;28;20132;-74
2022/03/21 04:35:22;;;;;;;114.82;103.95;;;6.40;90.10;;;;;;5016093;28;20530;-74
2022/03/21 04:37:49;;;;;;;119.10;107.70;;;6.30;90.00;;;;;;5031760;28;20089;-74
2022/03/21 04:40:16;;;;;;;119.72;108.10;;;6.20;90.00;;;;;;5033380;28;20064;-74
2022/03/21 04:42:44;;;;;;;;;;;6.10;90.20;;;;;;5033834;28;20050;-74
2022/03/21 04:45:11;;;;;;;118.25;106.65;;;6.00;90.00;;;;;;5015066;28;19925;-74
2022/03/21 04:47:38;;;;;;;;;;;5.90;90.40;;;;;;5015735;28;20052;-74
2022/03/21 04:50:07;;;;;;;122.78;110.53;;;5.90;90.10;;;;;;5032718;28;19925;-74
2022/03/21 04:52:34;;;;;;;121.22;109.28;;;5.90;90.40;;;;;;5033296;28;20145;-74
2022/03/21 04:55:02;;;;;;;125.10;111.75;;;5.90;90.40;;;;;;5015845;28;20100;-74
2022/03/21 04:57:30;;;;;;;124.53;112.40;;;5.90;90.30;;;;;;5015232;28;20054;-74
2022/03/21 04:59:59;;;;;;;122.00;110.07;;;5.90;90.30;;;;;;5033128;28;20056;-74
2022/03/21 05:02:26;;;;;;;122.07;110.03;;;5.90;90.20;;;;;;5033108;28;20057;-74
2022/03/21 05:04:52;;;;;;;;;;;5.90;90.10;;;;;;5016568;28;20061;-74
2022/03/21 05:07:19;;;;;;;116.65;105.45;;;5.90;89.10;;;;;;5015656;28;19926;-74
2022/03/21 05:09:47;;;;;;;;;;;5.90;89.80;;;;;;5033521;28;20046;-74
2022/03/21 05:12:15;;;;;;;114.70;103.50;;;5.80;88.60;;;;;;5033241;28;20377;-74
2022/03/21 05:14:42;;;;;;;114.68;103.68;;;5.80;89.50;;;;;;5014973;28;20061;-74
2022/03/21 05:17:12;;;;;;;116.45;105.35;;;5.80;89.50;;;;;;5032336;28;20058;-74
2022/03/21 05:19:39;;;;;;;115.00;104.10;;;5.80;89.40;;;;;;5032692;28;20064;-74
2022/03/21 05:22:07;;;;;;;116.97;105.88;;;5.80;89.30;;;;;;5014979;28;20046;-74
2022/03/21 05:35:52;;;;;;;114.28;102.95;;;5.40;88.90;;;;;;5023140;28;20050;-74
2022/03/21 05:35:54;;;;;;;115.20;103.25;;;5.20;89.20;;;;;;4998489;28;20532;-74
2022/03/21 05:38:23;;;;;;;129.70;108.28;;;5.00;89.80;;;;;;5014419;28;20064;-74
2022/03/21 05:40:50;;;;;;;119.95;107.45;;;4.90;89.70;;;;;;5016218;28;20825;-74
2022/03/21 05:43:17;;;;;;;115.38;103.65;;;4.80;89.80;;;;;;5016117;28;20051;-74
2022/03/21 05:45:44;;;;;;;115.55;103.10;;;4.80;90.10;;;;;;4998274;28;20046;-74
2022/03/21 05:50:57;;;;;;;116.25;104.07;;;4.70;90.40;;;;;;5036198;28;20053;-74
2022/03/21 05:53:24;;;;;;;115.68;104.38;;;4.70;90.30;;;;;;5035730;28;20650;-74
2022/03/21 05:55:51;;;;;;;116.80;105.10;;;4.60;90.30;;;;;;5018083;28;20069;-74
2022/03/21 05:58:18;;;;;;;116.60;104.05;;;4.60;90.40;;;;;;5017185;28;20058;-74
2022/03/21 06:00:45;;;;;;;118.50;105.72;;;4.60;90.40;;;;;;5035362;28;20488;-74
2022/03/21 06:03:13;;;;;;;114.35;102.95;;;4.50;90.40;;;;;;5034653;28;20058;-73
2022/03/21 06:05:40;;;;;;;114.38;102.57;;;4.50;90.50;;;;;;5035039;28;20108;-74
2022/03/21 06:08:08;;;;;;;;;;;4.50;90.60;;;;;;5017114;28;20049;-74
2022/03/21 06:10:37;;;;;;;113.07;101.82;;;4.50;90.40;;;;;;5017610;28;19925;-74
2022/03/21 06:13:05;;;;;;;113.50;102.40;;;4.50;90.60;;;;;;5012311;28;20794;-74
2022/03/21 06:15:32;;;;;;;113.22;102.25;;;4.50;90.70;;;;;;5017671;28;20073;-74
2022/03/21 06:18:01;;;;;;;113.03;102.03;;;4.50;90.70;;;;;;5035154;28;20050;-74
2022/03/21 06:20:30;;;;;;;113.05;102.05;;;4.50;90.70;;;;;;5017843;28;20052;-74
2022/03/21 06:25:59;;;;;;;112.13;101.22;;;4.60;90.70;;;;;;4992818;28;20066;-74
2022/03/21 06:28:28;;;;;;;112.93;101.78;;;4.60;90.70;;;;;;4977675;28;20567;-74
2022/03/21 06:30:56;;;;;;;111.63;100.82;;;4.60;90.70;;;;;;4978426;28;20137;-74
2022/03/21 06:33:25;;;;;;;112.63;101.32;;;4.50;90.80;;;;;;4978035;28;20058;-73
2022/03/21 06:35:54;;;;;;;113.13;101.93;;;4.50;90.90;;;;;;4978247;28;20057;-73
2022/03/21 06:38:21;;;;;;;113.45;102.38;;;4.50;91.10;;;;;;4995568;28;20799;-73
2022/03/21 06:40:48;;;;;;;112.75;101.85;;;4.50;91.20;;;;;;4994627;28;20141;-74
2022/03/21 06:43:16;;;;;;;114.97;103.88;;;4.40;91.30;;;;;;4977777;28;20067;-73
2022/03/21 06:45:44;;;;;;;114.70;103.68;;;4.40;91.40;;;;;;4993562;28;20492;-73
2022/03/21 06:48:11;;;;;;;114.00;102.85;;;4.50;91.50;;;;;;4993938;28;20053;-73
2022/03/21 06:50:38;;;;;;;113.63;102.53;;;4.50;91.60;;;;;;4994257;28;20054;-74
2022/03/21 06:53:06;;;;;;;;;;;4.50;91.60;;;;;;4994235;28;20098;-73
2022/03/21 06:55:33;;;;;;;115.93;104.63;;;4.50;91.50;;;;;;4993665;28;19957;-73
2022/03/21 06:58:03;;;;;;;112.57;101.55;;;4.50;91.70;;;;;;4994652;28;20429;-73
2022/03/21 07:00:30;;;;;;;113.97;102.78;;;4.60;91.80;;;;;;4977132;28;20583;-73
2022/03/21 07:02:57;;;;;;;115.07;103.68;;;4.60;92.00;;;;;;4995150;28;20529;-73
2022/03/21 07:05:26;;;;;;;115.70;104.40;;;4.60;92.10;;;;;;4995210;28;20055;-74
2022/03/21 07:07:52;;;;;;;117.15;105.75;;;4.60;92.30;;;;;;4994083;28;20054;-73
2022/03/21 07:10:21;;;;;;;117.13;105.68;;;4.60;92.30;;;;;;4995212;28;20055;-73
2022/03/21 07:12:48;;;;;;;117.13;105.43;;;4.70;92.40;;;;;;4994890;28;20055;-73
2022/03/21 07:15:16;;;;;;;;;;;4.70;92.50;;;;;;4993976;28;20109;-74
2022/03/21 07:17:43;;;;;;;117.95;106.25;;;4.80;92.10;;;;;;4994305;28;19985;-74
2022/03/21 07:20:13;;;;;;;;;;;4.80;92.30;;;;;;4994073;28;20055;-74
2022/03/21 07:22:40;;;;;;;120.43;108.53;;;4.80;91.50;;;;;;4992961;28;19941;-74
2022/03/21 07:25:08;;;;;;;119.50;107.70;;;4.80;92.10;;;;;;4975920;28;20051;-74
2022/03/21 07:27:37;;;;;;;121.65;109.70;;;4.90;92.30;;;;;;4990976;28;20523;-75
2022/03/21 07:30:05;;;;;;;123.45;111.15;;;4.90;92.50;;;;;;4992867;28;20504;-74
2022/03/21 07:32:32;;;;;;;126.47;113.53;;;4.90;92.60;;;;;;4988523;28;20055;-75
2022/03/21 07:35:00;;;;;;;127.57;114.78;;;5.00;93.10;;;;;;4974330;28;20457;-75
2022/03/21 07:37:27;;;;;;;128.00;115.00;;;5.00;93.90;;;;;;4976713;28;20154;-74
2022/03/21 07:39:54;;;;;;;127.55;114.60;;;5.10;94.10;;;;;;4993828;28;20133;-74
2022/03/21 07:42:21;;;;;;;130.00;116.82;;;5.10;94.60;;;;;;4993734;28;20130;-74
2022/03/21 07:47:34;;;;;;;129.17;115.80;;;5.30;94.80;;;;;;4986262;28;20053;-74
2022/03/21 07:50:01;;;;;;;;;;;5.40;94.50;;;;;;4992610;28;20326;-74
2022/03/21 07:52:28;;;;;;;130.07;116.57;;;5.40;94.00;;;;;;4993981;28;19937;-74
2022/03/21 07:54:55;;;;;;;132.40;118.80;;;5.40;94.50;;;;;;4990062;28;20058;-74
2022/03/21 07:57:24;;;;;;;131.35;117.75;;;5.50;94.80;;;;;;4976092;28;20049;-73
2022/03/21 07:59:53;;;;;;;134.23;120.32;;;5.60;95.10;;;;;;4975273;28;20050;-73
2022/03/21 08:02:21;;;;;;;131.70;118.00;;;5.70;95.40;;;;;;4993210;28;20053;-74
2022/03/21 08:04:50;;;;;;;134.73;120.47;;;5.80;95.50;;;;;;4992266;28;20117;-74
2022/03/21 08:07:17;;;;;;;132.30;118.97;;;5.90;95.50;;;;;;4993181;28;20051;-74
2022/03/21 08:09:46;;;;;;;;;;;6.00;95.60;;;;;;4994611;28;20059;-73
2022/03/21 08:12:13;;;;;;;128.88;115.75;;;6.10;95.90;;;;;;4994659;28;19937;-75
2022/03/21 08:14:40;;;;;;;132.00;118.10;;;6.20;95.50;;;;;;4992501;28;20126;-73
2022/03/21 08:17:08;;;;;;;131.98;118.78;;;6.30;95.60;;;;;;4992361;28;20047;-75
2022/03/21 08:19:35;;;;;;;130.95;117.45;;;6.40;95.80;;;;;;4976258;28;20505;-75
2022/03/21 08:22:04;;;;;;;130.43;117.22;;;6.50;95.80;;;;;;4993437;28;20054;-75
2022/03/21 08:24:33;;;;;;;132.43;119.03;;;6.60;95.90;;;;;;4993681;28;20059;-75
2022/03/21 08:27:00;;;;;;;131.77;118.15;;;6.70;96.00;;;;;;4992824;28;20061;-76
2022/03/21 08:29:27;;;;;;;129.90;117.00;;;6.80;96.00;;;;;;4976858;28;20138;-75
2022/03/21 08:31:54;;;;;;;;;;;6.90;96.10;;;;;;4993538;28;20043;-76
2022/03/21 08:34:22;;;;;;;;;;;6.90;95.80;;;;;;4977652;28;19925;-75
2022/03/21 08:36:50;;;;;;;129.77;116.53;;;7.00;95.60;;;;;;4993250;28;19933;-76
2022/03/21 08:39:17;;;;;;;130.40;117.43;;;7.10;95.80;;;;;;4993997;28;20133;-74
2022/03/21 08:41:44;;;;;;;;;;;7.20;95.90;;;;;;4994437;28;20588;-73
2022/03/21 08:44:11;;;;;;;130.77;117.47;;;7.30;96.10;;;;;;4993225;28;19926;-74
2022/03/21 08:46:38;;;;;;;133.15;119.43;;;7.40;95.90;;;;;;4993978;28;20054;-76
2022/03/21 08:51:50;;;;;;;131.32;118.13;;;7.60;96.00;;;;;;4976706;28;20437;-75
2022/03/21 08:54:18;;;;;;;135.30;122.00;;;7.60;95.90;;;;;;4992409;28;20058;-75
2022/03/21 08:56:45;;;;;;;134.07;120.82;;;7.70;96.00;;;;;;4993972;28;20503;-75
2022/03/21 08:59:12;;;;;;;132.23;118.90;;;7.80;96.10;;;;;;4992219;28;20058;-75
2022/03/21 09:01:40;;;;;;;132.10;118.75;;;7.80;96.00;;;;;;4992645;28;20837;-76
2022/03/21 09:04:08;;;;;;;131.85;118.95;;;7.90;96.00;;;;;;4994159;28;20054;-73
2022/03/21 09:06:36;;;;;;;129.45;116.40;;;8.00;96.10;;;;;;4996194;28;20074;-73
2022/03/21 09:09:04;;;;;;;127.90;114.95;;;8.10;96.10;;;;;;4979026;28;20137;-76
2022/03/21 09:11:31;;;;;;;130.10;117.25;;;8.20;96.00;;;;;;4958848;28;20516;-73
2022/03/21 09:13:58;;;;;;;131.32;118.03;;;8.40;95.90;;;;;;4980368;28;20051;-74
2022/03/21 09:16:26;;;;;;;130.05;117.13;;;8.50;95.90;;;;;;4979174;28;20134;-74
2022/03/21 09:18:53;;;;;;;127.60;114.93;;;8.60;95.80;;;;;;4995062;28;20065;-74
2022/03/21 09:21:20;;;;;;;127.63;114.60;;;8.60;95.70;;;;;;4995982;28;20524;-74
2022/03/21 09:23:47;;;;;;;127.82;115.20;;;8.70;95.60;;;;;;4995745;28;20050;-74
2022/03/21 09:26:15;;;;;;;129.27;116.38;;;8.80;95.50;;;;;;4978524;28;20051;-74
2022/03/21 09:28:43;;;;;;;127.68;114.88;;;8.90;95.50;;;;;;4978095;28;20077;-74
2022/03/21 09:31:11;;;;;;;131.43;118.47;;;9.10;95.40;;;;;;4994848;28;20137;-75
2022/03/21 09:33:39;;;;;;;132.77;119.63;;;9.10;95.30;;;;;;4994955;28;20051;-74
2022/03/21 09:36:06;;;;;;;131.52;118.22;;;9.20;95.20;;;;;;4977926;28;20051;-74
2022/03/21 09:38:34;;;;;;;130.13;117.53;;;9.40;95.00;;;;;;4977753;28;20503;-75
2022/03/21 09:41:03;;;;;;;130.30;117.45;;;9.50;94.50;;;;;;4979680;28;20057;-75
2022/03/21 09:43:32;;;;;;;130.13;117.47;;;9.60;94.20;;;;;;4977747;28;20137;-75
2022/03/21 09:46:00;;;;;;;130.88;118.20;;;9.70;94.00;;;;;;4996165;28;20061;-75
2022/03/21 09:48:28;;;;;;;132.95;120.00;;;9.90;94.00;;;;;;4978347;28;20059;-75
2022/03/21 09:50:56;;;;;;;132.38;119.35;;;10.00;93.90;;;;;;4978210;28;20055;-75
2022/03/21 09:53:24;;;;;;;130.88;117.72;;;10.00;93.90;;;;;;4961523;28;20158;-74
2022/03/21 09:55:51;;;;;;;133.82;120.32;;;10.20;93.30;;;;;;4994785;28;20532;-74
2022/03/21 09:58:20;;;;;;;133.27;120.00;;;10.20;93.20;;;;;;4995794;28;20511;-74
2022/03/21 10:00:49;;;;;;;133.57;120.55;;;10.40;93.00;;;;;;4995316;28;20066;-75
2022/03/21 10:07:42;;;;;;;131.52;118.75;;;10.60;92.50;;;;;;4980399;28;20058;-75
2022/03/21 10:10:12;;;;;;;135.60;122.20;;;10.70;92.20;;;;;;4970482;28;20495;-74
2022/03/21 10:12:40;;;;;;;133.52;120.53;;;10.80;92.30;;;;;;4995402;28;20058;-75
2022/03/21 10:15:08;;;;;;;132.77;119.80;;;10.90;92.20;;;;;;4977754;28;20512;-75
2022/03/21 10:17:36;;;;;;;137.88;124.40;;;11.00;92.10;;;;;;4993570;28;20043;-74
2022/03/21 10:20:08;;;;;;;133.52;120.18;;;11.10;92.10;;;;;;4990484;28;20062;-74
2022/03/21 10:22:37;;;;;;;132.75;120.05;;;11.20;91.70;;;;;;4975040;28;20075;-76
2022/03/21 10:25:06;;;;;;;134.30;121.00;;;11.30;91.30;;;;;;4977904;28;20134;-73
2022/03/21 10:27:36;;;;;;;132.38;119.13;;;11.30;91.10;;;;;;4977944;28;20101;-75
2022/03/21 10:30:07;;;;;;;131.85;119.22;;;11.40;90.80;;;;;;4978807;28;20047;-74
2022/03/21 10:32:42;;;;;;;131.68;118.95;;;11.50;90.70;;;;;;4978555;28;20047;-74
2022/03/21 10:35:12;;;;;;;132.88;119.85;;;11.60;90.70;;;;;;4977412;28;20489;-73
2022/03/21 10:37:48;;;;;;;130.73;117.90;;;11.70;90.70;;;;;;4977464;28;20062;-73
2022/03/21 10:40:19;;;;;;;;;;;11.80;90.60;;;;;;4990932;28;20063;-74
2022/03/21 10:42:52;;;;;;;131.60;118.78;;;11.90;90.60;;;;;;4959112;28;20017;-74
2022/03/21 10:45:19;;;;;;;131.90;119.10;;;12.00;90.00;;;;;;4975639;28;20059;-74
2022/03/21 10:47:52;;;;;;;134.30;120.65;;;12.10;89.30;;;;;;4958603;28;20051;-74
2022/03/21 10:50:31;;;;;;;131.15;118.65;;;12.20;88.90;;;;;;4974732;28;20520;-74
2022/03/21 10:53:06;;;;;;;131.25;118.63;;;12.20;89.10;;;;;;4990427;28;20055;-74
2022/03/21 10:55:33;;;;;;;132.25;119.53;;;12.30;89.50;;;;;;4977061;28;20066;-74
2022/03/21 10:58:01;;;;;;;134.18;121.32;;;12.40;89.80;;;;;;4976956;28;20053;-73
2022/03/21 11:00:28;;;;;;;131.18;118.57;;;12.50;89.30;;;;;;4994541;28;20046;-73
2022/03/21 11:03:00;;;;;;;132.68;119.50;;;12.60;88.20;;;;;;4976417;28;20050;-73
2022/03/21 11:05:30;;;;;;;135.45;122.53;;;12.70;86.70;;;;;;4976781;28;20485;-74
2022/03/21 11:07:57;;;;;;;130.27;117.60;;;12.80;85.70;;;;;;4977105;28;20137;-74
2022/03/21 11:10:27;;;;;;;131.43;119.13;;;12.90;85.30;;;;;;4977405;28;20050;-75
2022/03/21 11:12:55;;;;;;;132.52;119.88;;;13.00;84.80;;;;;;4977366;28;20487;-75
2022/03/21 11:15:23;;;;;;;131.98;119.40;;;13.10;81.70;;;;;;4993675;28;20521;-75
2022/03/21 11:17:51;;;;;;;136.57;123.45;;;13.10;80.70;;;;;;4993323;28;20054;-74
2022/03/21 11:20:19;;;;;;;134.73;121.90;;;13.20;79.10;;;;;;4994110;28;20065;-75
2022/03/21 11:22:46;;;;;;;136.20;123.30;;;13.30;79.10;;;;;;4976416;28;20058;-76
2022/03/21 11:25:15;;;;;;;135.55;122.60;;;13.30;78.90;;;;;;4976531;28;20054;-75
2022/03/21 11:28:01;;;;;;;132.70;120.28;;;13.40;78.70;;;;;;4992968;28;20082;-74
2022/03/21 11:30:36;;;;;;;133.35;120.80;;;13.40;79.10;;;;;;4994717;28;20058;-74
2022/03/21 11:33:11;;;;;;;;;;;13.50;77.70;;;;;;4993626;28;20047;-74
2022/03/21 11:35:49;;;;;;;131.90;119.43;;;13.60;78.20;;;;;;4977478;28;20347;-74
2022/03/21 11:38:24;;;;;;;133.23;120.43;;;13.70;77.10;;;;;;4994589;28;20113;-74
2022/03/21 11:40:52;;;;;;;132.17;119.30;;;13.70;76.60;;;;;;4977338;28;20062;-74
2022/03/21 11:43:29;;;;;;;133.85;121.03;;;13.80;76.10;;;;;;4994427;28;20357;-74
2022/03/21 11:45:57;;;;;;;133.75;120.93;;;13.90;75.40;;;;;;4977103;28;20138;-74
2022/03/21 11:48:35;;;;;;;134.05;121.47;;;14.00;74.90;;;;;;4977126;28;20046;-74
2022/03/21 11:51:23;;;;;;;135.52;122.80;;;14.00;75.10;;;;;;4994714;28;20459;-75
2022/03/21 11:53:54;;;;;;;135.30;122.45;;;14.10;75.60;;;;;;4976190;28;20603;-75
2022/03/21 11:56:53;;;;;;;133.73;121.13;;;14.20;75.90;;;;;;4993277;28;20054;-76
2022/03/21 12:00:12;;;;;;;135.43;122.43;;;14.30;74.80;;;;;;4975997;28;20053;-75
2022/03/21 12:02:57;;;;;;;136.43;123.78;;;14.40;76.20;;;;;;4917070;29;20117;-75
2022/03/21 12:05:54;;;;;;;136.85;123.90;;;14.50;74.10;;;;;;4976507;28;20058;-75
2022/03/21 12:08:48;;;;;;;134.98;122.13;;;14.70;72.90;;;;;;4965095;28;20051;-74
2022/03/21 12:11:59;;;;;;;136.60;123.53;;;14.70;72.80;;;;;;4991177;28;20047;-75
2022/03/21 12:14:29;;;;;;;138.68;124.93;;;14.80;73.80;;;;;;4991151;28;20059;-74
2022/03/21 12:17:28;;;;;;;139.77;126.13;;;15.00;73.90;;;;;;4993663;28;20047;-75
2022/03/21 12:20:03;;;;;;;137.27;124.50;;;15.10;73.40;;;;;;4991951;28;20063;-75
2022/03/21 12:22:37;;;;;;;137.57;124.75;;;15.20;72.90;;;;;;4989215;28;20058;-75
2022/03/21 12:25:09;;;;;;;137.52;124.70;;;15.30;70.80;;;;;;4973550;28;20059;-75
2022/03/21 12:27:38;;;;;;;139.80;126.80;;;15.40;68.70;;;;;;4971422;28;20122;-75
2022/03/21 12:30:40;;;;;;;139.48;126.13;;;15.50;68.00;;;;;;4973207;28;20055;-75
2022/03/21 12:33:29;;;;;;;135.93;123.22;;;15.60;67.40;;;;;;4971397;28;20077;-75
2022/03/21 12:36:05;;;;;;;138.10;125.20;;;15.70;66.00;;;;;;4976273;28;20061;-75
2022/03/21 12:38:36;;;;;;;126.13;114.93;;;15.80;66.10;;;;;;4995545;28;20067;-76
2022/03/21 12:41:10;;;;;;;124.82;113.70;;;15.90;69.10;;;;;;4997456;28;20054;-77
2022/03/21 12:43:52;;;;;;;134.82;122.63;;;16.00;71.90;;;;;;4997014;28;20060;-78
2022/03/21 12:46:21;;;;;;;140.07;127.20;;;16.20;69.40;;;;;;4979913;28;20055;-78
2022/03/21 12:48:50;;;;;;;141.50;128.50;;;16.30;68.40;;;;;;4979160;28;20051;-78
2022/03/21 12:51:26;;;;;;;140.05;127.05;;;16.40;67.20;;;;;;4977841;28;20054;-78
2022/03/21 12:53:56;;;;;;;142.48;129.32;;;16.50;65.30;;;;;;4994257;28;20065;-78
2022/03/21 12:56:27;;;;;;;141.18;128.50;;;16.60;64.50;;;;;;4976030;28;20062;-78
2022/03/21 12:58:58;;;;;;;139.15;126.85;;;16.70;62.40;;;;;;4960128;28;20151;-77
2022/03/21 13:01:25;;;;;;;142.27;129.50;;;16.80;62.70;;;;;;4963410;28;20105;-77
2022/03/21 13:10:32;;;;;;;135.32;123.57;;;16.90;61.70;;;;;;4980415;28;20050;-77
2022/03/21 13:12:28;;;;;;;140.02;127.35;;;17.10;60.20;;;;;;4978973;28;20050;-77